Time;durP1;ratioP1;P1;durP2;ratioP2;P2;SDS_P1;SDS_P2;PMS_P1;PMS_P2;Temp;Humidity;BMP_temperature;BMP_pressure;BME280_temperature;BME280_humidity;BME280_pressure;Samples;Min_cycle;Max_cycle;Signal;HPM_P1;HPM_P2
2023/01/05 00:01:32;;;;;;;22.48;3.95;;;21.30;86.90;;;;;;5030852;28;20101;-66
2023/01/05 00:03:59;;;;;;;15.00;3.22;;;21.40;86.70;;;;;;5030352;28;20105;-67
2023/01/05 00:06:25;;;;;;;12.07;2.92;;;21.30;86.70;;;;;;5030020;28;20563;-66
2023/01/05 00:08:52;;;;;;;17.00;3.50;;;21.20;87.00;;;;;;5030374;28;20121;-69
2023/01/05 00:22:43;;;;;;;20.25;3.97;;;20.70;90.60;;;;;;5029749;28;20588;-70
2023/01/05 00:25:14;;;;;;;18.50;3.42;;;20.60;90.90;;;;;;5029313;28;20116;-66
2023/01/05 00:27:41;;;;;;;13.38;3.22;;;20.50;91.30;;;;;;5043435;28;20513;-65
2023/01/05 00:30:10;;;;;;;20.30;3.67;;;20.40;91.50;;;;;;5030383;28;20070;-66
2023/01/05 00:32:37;;;;;;;16.05;3.92;;;20.40;91.80;;;;;;5029765;28;20100;-66
2023/01/05 00:35:04;;;;;;;13.43;3.92;;;20.30;92.10;;;;;;5029570;28;20070;-68
2023/01/05 00:37:33;;;;;;;23.42;4.75;;;20.30;92.50;;;;;;5029447;28;20074;-68
2023/01/05 00:39:59;;;;;;;19.48;4.47;;;20.20;91.90;;;;;;5029577;28;20073;-66
2023/01/05 00:42:25;;;;;;;27.33;4.60;;;20.20;91.90;;;;;;5029676;28;20069;-66
2023/01/05 00:44:52;;;;;;;31.67;4.05;;;20.20;92.00;;;;;;5029344;28;20077;-67
2023/01/05 00:47:19;;;;;;;29.80;4.28;;;20.20;92.00;;;;;;5029332;28;20458;-65
2023/01/05 00:49:45;;;;;;;17.23;4.10;;;20.10;91.90;;;;;;5029086;28;20156;-67
2023/01/05 00:52:12;;;;;;;16.10;3.08;;;20.00;91.90;;;;;;5028706;28;20078;-67
2023/01/05 00:54:38;;;;;;;21.08;4.30;;;20.00;91.60;;;;;;5028087;28;20066;-67
2023/01/05 00:57:06;;;;;;;22.30;6.05;;;20.00;91.20;;;;;;5029090;28;20074;-68
2023/01/05 00:59:32;;;;;;;26.67;8.05;;;20.00;91.00;;;;;;5028900;28;20148;-66
2023/01/05 01:01:59;;;;;;;18.90;6.10;;;19.90;91.00;;;;;;5028997;28;20220;-66
2023/01/05 01:04:25;;;;;;;24.45;6.28;;;19.90;91.20;;;;;;5028419;28;20077;-67
2023/01/05 01:06:53;;;;;;;21.35;5.78;;;19.90;91.20;;;;;;5029636;28;20407;-66
2023/01/05 01:09:19;;;;;;;19.27;5.90;;;19.80;91.50;;;;;;5028688;28;20094;-65
2023/01/05 01:11:46;;;;;;;20.73;4.78;;;19.80;91.70;;;;;;5029034;28;20180;-67
2023/01/05 01:14:12;;;;;;;21.27;5.88;;;19.80;91.80;;;;;;5028826;28;20086;-66
2023/01/05 01:16:41;;;;;;;21.33;6.30;;;19.70;92.20;;;;;;5028839;28;20089;-67
2023/01/05 01:19:08;;;;;;;27.70;7.60;;;19.70;92.70;;;;;;5028646;28;20089;-68
2023/01/05 01:21:35;;;;;;;32.97;7.28;;;19.70;92.80;;;;;;5026273;28;20102;-68
2023/01/05 01:24:01;;;;;;;31.42;6.43;;;19.60;93.00;;;;;;5027787;28;20082;-66
2023/01/05 01:26:27;;;;;;;26.23;6.07;;;19.50;93.40;;;;;;5027650;28;20110;-67
2023/01/05 01:28:54;;;;;;;32.50;6.97;;;19.50;93.80;;;;;;5029200;28;20423;-69
2023/01/05 01:31:20;;;;;;;36.92;8.10;;;19.50;94.10;;;;;;5028471;28;20106;-68
2023/01/05 01:33:46;;;;;;;38.28;7.72;;;19.40;94.40;;;;;;5028896;28;20128;-66
2023/01/05 01:36:13;;;;;;;30.23;7.75;;;19.30;94.80;;;;;;5029310;28;20076;-66
2023/01/05 01:38:39;;;;;;;28.60;6.45;;;19.10;95.00;;;;;;5032791;28;20546;-67
2023/01/05 01:41:06;;;;;;;27.63;7.20;;;19.20;95.50;;;;;;5033016;28;20089;-67
2023/01/05 01:43:41;;;;;;;59.00;26.83;;;19.10;95.40;;;;;;5032737;28;20101;-65
2023/01/05 01:46:07;;;;;;;86.07;40.67;;;19.10;95.70;;;;;;5031713;28;20112;-67
2023/01/05 01:48:35;;;;;;;47.72;23.40;;;19.00;95.90;;;;;;5032325;28;20193;-66
2023/01/05 01:51:09;;;;;;;44.85;17.50;;;18.90;96.20;;;;;;5032830;28;20160;-66
2023/01/05 01:53:43;;;;;;;42.42;15.48;;;18.90;96.40;;;;;;5031680;28;20065;-65
2023/01/05 01:56:15;;;;;;;50.72;16.15;;;18.80;96.50;;;;;;5032628;28;20066;-66
2023/01/05 01:58:41;;;;;;;44.88;15.70;;;18.70;96.70;;;;;;5031608;28;20144;-65
2023/01/05 02:01:08;;;;;;;46.13;15.45;;;18.60;96.90;;;;;;5032850;28;20070;-66
2023/01/05 02:03:35;;;;;;;33.50;12.95;;;18.60;97.20;;;;;;5032728;28;20073;-68
2023/01/05 02:06:02;;;;;;;40.97;12.93;;;18.50;97.40;;;;;;5032664;28;20527;-66
2023/01/05 02:08:31;;;;;;;50.95;14.30;;;18.40;97.60;;;;;;5032767;28;20164;-65
2023/01/05 02:11:22;;;;;;;52.28;15.93;;;18.30;97.90;;;;;;5032620;28;20153;-69
2023/01/05 02:14:09;;;;;;;42.35;14.57;;;18.20;98.20;;;;;;5032261;28;20124;-67
2023/01/05 02:16:53;;;;;;;44.78;13.60;;;18.20;98.50;;;;;;5032273;28;20405;-67
2023/01/05 02:19:38;;;;;;;41.20;12.82;;;18.20;98.80;;;;;;5032407;28;20550;-67
2023/01/05 02:22:41;;;;;;;42.83;11.18;;;18.10;99.00;;;;;;5032465;28;20086;-68
2023/01/05 02:25:48;;;;;;;33.28;9.68;;;18.00;99.40;;;;;;5031618;28;20114;-69
2023/01/05 02:28:33;;;;;;;33.45;8.75;;;17.90;99.40;;;;;;5031477;28;20093;-68
2023/01/05 02:31:23;;;;;;;36.92;8.10;;;17.80;99.70;;;;;;5032611;28;20540;-69
2023/01/05 02:34:17;;;;;;;30.23;8.73;;;17.70;99.90;;;;;;5031106;28;20078;-68
2023/01/05 02:36:53;;;;;;;41.25;8.93;;;17.60;99.90;;;;;;5031338;28;20157;-67
2023/01/05 02:39:42;;;;;;;39.33;9.07;;;17.60;99.90;;;;;;5031250;28;20538;-70
2023/01/05 02:42:21;;;;;;;44.40;8.32;;;17.50;99.90;;;;;;5030645;28;20090;-67
2023/01/05 02:44:48;;;;;;;30.38;8.05;;;17.50;99.90;;;;;;5031290;28;20096;-68
2023/01/05 02:47:29;;;;;;;38.00;8.77;;;17.40;99.90;;;;;;5031899;28;20090;-68
2023/01/05 02:50:03;;;;;;;31.40;8.77;;;17.40;99.90;;;;;;5029711;28;20160;-68
2023/01/05 02:52:55;;;;;;;47.33;9.43;;;17.30;99.90;;;;;;5031990;28;20081;-67
2023/01/05 02:55:29;;;;;;;37.00;9.07;;;17.20;99.90;;;;;;5030145;28;20082;-67
2023/01/05 02:58:04;;;;;;;35.95;8.93;;;17.20;99.90;;;;;;5032136;28;20076;-69
2023/01/05 03:01:02;;;;;;;39.03;9.13;;;17.10;99.90;;;;;;5032143;28;20074;-67
2023/01/05 03:03:34;;;;;;;;;;;17.00;99.90;;;;;;5031681;28;20506;-66
2023/01/05 03:06:07;;;;;;;32.13;8.43;;;17.00;99.90;;;;;;5030603;28;19957;-69
2023/01/05 03:08:38;;;;;;;48.45;10.73;;;16.90;99.90;;;;;;5031472;28;20159;-67
2023/01/05 03:14:06;;;;;;;42.45;10.10;;;16.90;99.90;;;;;;5031309;28;20097;-68
2023/01/05 03:16:36;;;;;;;54.38;10.77;;;16.80;99.90;;;;;;5029716;28;20065;-68
2023/01/05 03:19:43;;;;;;;38.70;10.23;;;16.70;99.90;;;;;;5031049;28;20469;-67
2023/01/05 03:38:06;;;;;;;36.33;12.20;;;16.50;99.90;;;;;;5031231;28;20120;-71
2023/01/05 03:40:35;;;;;;;44.88;12.35;;;16.40;99.90;;;;;;5030098;28;20128;-69
2023/01/05 03:43:03;;;;;;;37.92;12.50;;;16.40;99.90;;;;;;5030366;28;20466;-66
2023/01/05 03:45:40;;;;;;;46.90;12.13;;;16.30;99.90;;;;;;5031163;28;20077;-68
2023/01/05 03:48:07;;;;;;;45.13;13.18;;;16.30;99.90;;;;;;5029607;28;20089;-68
2023/01/05 03:50:35;;;;;;;53.38;12.95;;;16.30;99.90;;;;;;5030837;28;20164;-71
2023/01/05 03:53:01;;;;;;;44.38;13.27;;;16.20;99.90;;;;;;5029107;28;20471;-68
2023/01/05 03:55:28;;;;;;;49.25;12.93;;;16.20;99.90;;;;;;5030196;28;20073;-69
2023/01/05 03:57:54;;;;;;;44.58;13.45;;;16.10;99.90;;;;;;5030386;28;20070;-67
2023/01/05 04:00:21;;;;;;;50.13;14.48;;;16.10;99.90;;;;;;5029873;28;20545;-70
2023/01/05 04:02:48;;;;;;;59.08;14.82;;;16.00;99.90;;;;;;5030285;28;20070;-67
2023/01/05 04:05:14;;;;;;;49.85;14.77;;;16.00;99.90;;;;;;5030421;28;20159;-68
2023/01/05 04:07:40;;;;;;;46.45;14.32;;;15.90;99.90;;;;;;5030058;28;20080;-70
2023/01/05 04:10:07;;;;;;;54.15;13.95;;;15.90;99.90;;;;;;5030341;28;20080;-68
2023/01/05 04:12:35;;;;;;;47.05;15.68;;;15.90;99.90;;;;;;5028836;28;20066;-66
2023/01/05 04:15:03;;;;;;;44.50;14.55;;;15.90;99.90;;;;;;5030408;28;20101;-70
2023/01/05 04:17:29;;;;;;;55.22;14.93;;;15.90;99.90;;;;;;5029963;28;20077;-68
2023/01/05 04:19:56;;;;;;;40.63;13.43;;;15.70;99.90;;;;;;5030648;28;20077;-68
2023/01/05 04:22:22;;;;;;;52.92;13.80;;;15.80;99.90;;;;;;5031180;28;20062;-69
2023/01/05 04:24:48;;;;;;;47.90;15.30;;;15.70;99.90;;;;;;5030220;28;20316;-70
2023/01/05 04:27:15;;;;;;;54.70;15.32;;;15.70;99.90;;;;;;5028657;28;20082;-69
2023/01/05 04:29:41;;;;;;;51.15;16.85;;;15.60;99.90;;;;;;5030468;28;20100;-70
2023/01/05 04:32:08;;;;;;;56.13;16.30;;;15.70;99.90;;;;;;5030578;28;20157;-70
2023/01/05 04:34:34;;;;;;;56.13;18.48;;;15.70;99.90;;;;;;5030500;28;20074;-68
2023/01/05 04:37:00;;;;;;;59.47;17.77;;;15.70;99.90;;;;;;5030221;28;20109;-75
2023/01/05 04:39:27;;;;;;;56.35;16.63;;;15.80;99.90;;;;;;5028883;28;20509;-68
2023/01/05 04:41:53;;;;;;;38.45;14.90;;;15.80;99.90;;;;;;5029733;28;20078;-72
2023/01/05 04:44:20;;;;;;;44.85;14.30;;;15.80;99.90;;;;;;5030028;28;20085;-69
2023/01/05 04:46:46;;;;;;;45.90;12.88;;;15.70;99.90;;;;;;5029836;28;20152;-70
2023/01/05 04:49:13;;;;;;;46.13;12.85;;;15.70;99.90;;;;;;5030551;28;20173;-70
2023/01/05 04:51:39;;;;;;;40.03;12.07;;;15.70;99.90;;;;;;5029822;28;20074;-69
2023/01/05 04:54:06;;;;;;;39.90;11.50;;;15.70;99.90;;;;;;5030076;28;20120;-69
2023/01/05 04:56:32;;;;;;;39.80;12.77;;;15.70;99.90;;;;;;5028314;28;20104;-68
2023/01/05 04:58:58;;;;;;;43.95;11.25;;;15.70;99.90;;;;;;5029806;28;20074;-69
2023/01/05 05:01:25;;;;;;;32.78;9.25;;;15.70;99.90;;;;;;5030801;28;20097;-67
2023/01/05 05:03:51;;;;;;;29.00;9.02;;;15.70;99.90;;;;;;5029671;28;20074;-69
2023/01/05 05:06:18;;;;;;;38.35;10.57;;;15.70;99.90;;;;;;5029782;28;20078;-72
2023/01/05 05:08:44;;;;;;;38.90;10.13;;;15.60;99.90;;;;;;5029730;28;20090;-69
2023/01/05 05:11:11;;;;;;;36.53;10.40;;;15.60;99.90;;;;;;5029623;28;20066;-67
2023/01/05 05:13:37;;;;;;;33.85;8.43;;;15.60;99.90;;;;;;5035471;28;20093;-68
2023/01/05 05:16:04;;;;;;;34.22;9.60;;;15.50;99.90;;;;;;5035865;28;20084;-68
2023/01/05 05:18:30;;;;;;;53.33;9.80;;;15.40;99.90;;;;;;5035559;28;20101;-67
2023/01/05 05:20:57;;;;;;;41.60;10.13;;;15.40;99.90;;;;;;5035774;28;20078;-64
2023/01/05 05:23:23;;;;;;;43.17;11.95;;;15.30;99.90;;;;;;5038109;28;20116;-71
2023/01/05 05:25:51;;;;;;;42.53;12.98;;;15.30;99.90;;;;;;5035335;28;20157;-69
2023/01/05 05:28:18;;;;;;;42.78;13.38;;;15.20;99.90;;;;;;5035338;28;20098;-69
2023/01/05 05:30:47;;;;;;;43.17;13.82;;;15.30;99.90;;;;;;5036265;28;20093;-68
2023/01/05 05:33:14;;;;;;;47.03;17.60;;;15.30;99.90;;;;;;5035426;28;20544;-70
2023/01/05 05:35:41;;;;;;;41.03;16.63;;;15.10;99.90;;;;;;5035335;28;20066;-69
2023/01/05 05:38:07;;;;;;;40.20;17.10;;;15.10;99.90;;;;;;5035552;28;20121;-70
2023/01/05 05:40:34;;;;;;;47.28;22.67;;;15.20;99.90;;;;;;5035310;28;20074;-68
2023/01/05 05:43:00;;;;;;;46.33;20.42;;;15.10;99.90;;;;;;5035409;28;20603;-68
2023/01/05 05:45:26;;;;;;;41.53;20.38;;;15.00;99.90;;;;;;5035443;28;20073;-71
2023/01/05 05:47:52;;;;;;;;;;;15.00;99.90;;;;;;5037403;28;20095;-65
2023/01/05 05:50:19;;;;;;;48.10;21.85;;;14.90;99.90;;;;;;5041629;28;19984;-67
2023/01/05 05:52:45;;;;;;;43.35;20.10;;;14.90;99.90;;;;;;5035267;28;20101;-69
2023/01/05 05:55:12;;;;;;;51.05;22.45;;;14.90;99.90;;;;;;5035072;28;20683;-68
2023/01/05 05:57:38;;;;;;;47.05;21.98;;;14.80;99.90;;;;;;5035264;28;20145;-68
2023/01/05 06:00:05;;;;;;;48.80;22.73;;;14.80;99.90;;;;;;5035484;28;20066;-70
2023/01/05 06:02:31;;;;;;;55.90;24.40;;;14.80;99.90;;;;;;5035665;28;21770;-67
2023/01/05 06:04:58;;;;;;;49.17;22.75;;;14.80;99.90;;;;;;5035251;28;20080;-70
2023/01/05 06:07:24;;;;;;;53.45;22.55;;;14.70;99.90;;;;;;5035255;28;20489;-67
2023/01/05 06:09:51;;;;;;;58.00;24.45;;;14.70;99.90;;;;;;5033845;28;20090;-72
2023/01/05 06:12:17;;;;;;;53.40;22.88;;;14.70;99.90;;;;;;5035990;28;20062;-70
2023/01/05 06:14:43;;;;;;;47.55;22.98;;;14.70;99.90;;;;;;5035249;28;20073;-70
2023/01/05 06:17:10;;;;;;;54.30;24.45;;;14.60;99.90;;;;;;5035300;28;20079;-70
2023/01/05 06:19:36;;;;;;;55.88;25.80;;;14.60;99.90;;;;;;5035049;28;20077;-68
2023/01/05 06:22:02;;;;;;;;;;;14.50;99.90;;;;;;5035657;28;20097;-68
2023/01/05 06:24:28;;;;;;;59.47;24.25;;;14.50;99.90;;;;;;5031691;28;20008;-73
2023/01/05 06:26:55;;;;;;;62.42;24.92;;;14.50;99.90;;;;;;5031424;28;20505;-69
2023/01/05 06:29:21;;;;;;;63.53;25.20;;;14.50;99.90;;;;;;5030777;28;20428;-68
2023/01/05 06:31:47;;;;;;;;;;;14.40;99.90;;;;;;5033126;28;20082;-70
2023/01/05 06:34:14;;;;;;;59.15;24.73;;;14.40;99.90;;;;;;5030850;28;20307;-68
2023/01/05 06:36:40;;;;;;;58.83;23.48;;;14.30;99.90;;;;;;5031424;28;20510;-69
2023/01/05 06:39:06;;;;;;;;;;;14.30;99.90;;;;;;5031241;28;20081;-69
2023/01/05 06:41:34;;;;;;;71.47;25.52;;;14.20;99.90;;;;;;5031856;28;20329;-71
2023/01/05 06:44:00;;;;;;;67.53;25.27;;;14.10;99.90;;;;;;5031664;28;20519;-69
2023/01/05 06:46:27;;;;;;;67.50;27.17;;;14.20;99.90;;;;;;5031344;28;20074;-66
2023/01/05 06:48:53;;;;;;;;;;;14.10;99.90;;;;;;5032280;28;20167;-68
2023/01/05 06:51:19;;;;;;;75.22;26.30;;;14.20;99.90;;;;;;5030921;28;20414;-69
2023/01/05 06:53:46;;;;;;;74.75;34.55;;;14.10;99.90;;;;;;5031586;28;20460;-68
2023/01/05 06:56:12;;;;;;;;;;;14.10;99.90;;;;;;5031853;28;20088;-74
2023/01/05 06:58:38;;;;;;;62.42;25.05;;;14.00;99.90;;;;;;5032117;28;19964;-69
2023/01/05 07:01:04;;;;;;;;;;;14.00;99.90;;;;;;5034908;28;20141;-68
2023/01/05 07:03:31;;;;;;;62.05;23.80;;;14.00;99.90;;;;;;5031627;28;20357;-70
2023/01/05 07:05:57;;;;;;;;;;;14.00;99.90;;;;;;5031604;28;20077;-69
2023/01/05 07:08:23;;;;;;;64.70;24.65;;;13.90;99.90;;;;;;5031134;28;19973;-69
2023/01/05 07:10:49;;;;;;;66.20;25.42;;;13.80;99.90;;;;;;5031476;28;20551;-69
2023/01/05 07:13:15;;;;;;;;;;;13.90;99.90;;;;;;5030579;28;20156;-73
2023/01/05 07:15:42;;;;;;;70.28;29.98;;;13.70;99.90;;;;;;5031552;28;20382;-68
2023/01/05 07:18:08;;;;;;;;;;;13.70;99.90;;;;;;5031699;28;20486;-68
2023/01/05 07:20:34;;;;;;;65.22;28.52;;;13.70;99.90;;;;;;5031057;28;20052;-69
2023/01/05 07:23:00;;;;;;;;;;;13.80;99.90;;;;;;5034144;28;20086;-70
2023/01/05 07:25:30;;;;;;;68.95;29.20;;;13.80;99.90;;;;;;5032078;28;20043;-66
2023/01/05 07:27:57;;;;;;;70.97;30.02;;;13.80;99.90;;;;;;5034291;28;20572;-70
2023/01/05 07:30:24;;;;;;;71.25;29.80;;;13.70;99.90;;;;;;5032274;28;20078;-70
2023/01/05 07:32:50;;;;;;;62.58;28.65;;;13.70;99.90;;;;;;5033503;28;20070;-69
2023/01/05 07:35:16;;;;;;;;;;;13.60;99.90;;;;;;5033578;28;20078;-68
2023/01/05 07:37:43;;;;;;;72.57;29.25;;;13.60;99.90;;;;;;5031946;28;19957;-71
2023/01/05 07:40:10;;;;;;;70.30;27.08;;;13.70;99.90;;;;;;5032660;28;20074;-69
2023/01/05 07:42:37;;;;;;;72.55;28.10;;;13.80;99.90;;;;;;5033436;28;20073;-71
2023/01/05 07:45:03;;;;;;;;;;;13.80;99.90;;;;;;5032629;28;20074;-70
2023/01/05 07:47:30;;;;;;;66.10;26.92;;;13.80;99.90;;;;;;5031971;28;20438;-69
2023/01/05 07:49:56;;;;;;;63.35;26.23;;;13.80;99.90;;;;;;5032991;28;20109;-70
2023/01/05 07:52:22;;;;;;;;;;;13.70;99.90;;;;;;5034619;28;20182;-68
2023/01/05 07:54:49;;;;;;;59.35;23.73;;;13.70;99.90;;;;;;5032698;28;19962;-70
2023/01/05 07:57:15;;;;;;;;;;;13.80;99.90;;;;;;5034698;28;20070;-72
2023/01/05 07:59:41;;;;;;;60.15;24.83;;;13.80;99.90;;;;;;5032288;28;20304;-70
2023/01/05 08:02:09;;;;;;;70.88;26.52;;;13.70;99.90;;;;;;5035133;28;20085;-70
2023/01/05 08:04:36;;;;;;;65.65;26.42;;;13.80;99.90;;;;;;5032335;28;20078;-70
2023/01/05 08:07:02;;;;;;;;;;;13.80;99.90;;;;;;5033755;28;20582;-70
2023/01/05 08:12:12;;;;;;;64.57;28.55;;;13.70;99.90;;;;;;5033565;28;20073;-70
2023/01/05 08:14:38;;;;;;;;;;;13.70;99.90;;;;;;5032144;28;20083;-69
2023/01/05 08:17:05;;;;;;;77.40;28.77;;;13.70;99.90;;;;;;5033284;28;19957;-71
2023/01/05 08:19:31;;;;;;;64.10;30.33;;;13.70;99.90;;;;;;5034183;28;20070;-69
2023/01/05 08:21:57;;;;;;;;;;;13.80;99.90;;;;;;5032680;28;20078;-68
2023/01/05 08:24:24;;;;;;;64.47;29.58;;;13.80;99.90;;;;;;5030031;28;20048;-70
2023/01/05 08:26:50;;;;;;;;;;;13.80;99.90;;;;;;5031800;28;20168;-68
2023/01/05 08:29:16;;;;;;;82.95;38.08;;;13.80;99.90;;;;;;5030482;28;20115;-69
2023/01/05 08:31:43;;;;;;;82.57;35.75;;;13.70;99.90;;;;;;5031930;28;20076;-69
2023/01/05 08:34:09;;;;;;;;;;;13.80;99.90;;;;;;5034401;28;20078;-66
2023/01/05 08:36:35;;;;;;;69.47;32.33;;;13.80;99.90;;;;;;5035640;28;19972;-69
2023/01/05 08:39:01;;;;;;;;;;;13.70;99.90;;;;;;5037271;28;20077;-67
2023/01/05 08:41:31;;;;;;;58.38;27.13;;;13.70;99.90;;;;;;5034760;28;20016;-64
2023/01/05 08:43:59;;;;;;;54.05;21.92;;;13.70;99.90;;;;;;5031476;28;20086;-70
2023/01/05 08:46:28;;;;;;;71.60;25.02;;;13.70;99.90;;;;;;5030609;28;20081;-73
2023/01/05 08:48:57;;;;;;;63.08;23.48;;;13.60;99.90;;;;;;5032988;28;20094;-69
2023/01/05 08:51:24;;;;;;;62.45;23.73;;;13.50;99.90;;;;;;5030232;28;20132;-70
2023/01/05 08:53:51;;;;;;;56.45;23.38;;;13.50;99.90;;;;;;5033258;28;20725;-70
2023/01/05 08:56:18;;;;;;;57.40;22.40;;;13.60;99.90;;;;;;5031721;28;20096;-70
2023/01/05 08:58:45;;;;;;;63.47;24.73;;;13.70;99.90;;;;;;5031663;28;20074;-76
2023/01/05 09:01:14;;;;;;;72.43;26.83;;;13.60;99.90;;;;;;5032901;28;20074;-69
2023/01/05 09:03:41;;;;;;;76.32;27.15;;;13.60;99.90;;;;;;5030723;28;20599;-70
2023/01/05 09:06:10;;;;;;;67.13;29.08;;;13.60;99.90;;;;;;5031542;28;20144;-69
2023/01/05 09:08:38;;;;;;;90.70;41.67;;;13.60;99.90;;;;;;5031697;28;20101;-71
2023/01/05 09:11:17;;;;;;;103.50;47.72;;;13.50;99.90;;;;;;5031773;28;20078;-70
2023/01/05 09:13:48;;;;;;;99.68;49.97;;;13.60;99.90;;;;;;5032809;28;20089;-69
2023/01/05 09:16:18;;;;;;;107.10;46.55;;;13.60;99.90;;;;;;5031313;28;20473;-68
2023/01/05 09:18:45;;;;;;;91.30;43.53;;;13.60;99.90;;;;;;5030346;28;20086;-70
2023/01/05 09:21:12;;;;;;;86.57;46.55;;;13.60;99.90;;;;;;5030326;28;20140;-69
2023/01/05 09:23:39;;;;;;;88.82;45.38;;;13.50;99.90;;;;;;5030722;28;20527;-71
2023/01/05 09:26:07;;;;;;;98.32;47.08;;;13.50;99.90;;;;;;5029212;28;20626;-69
2023/01/05 09:28:35;;;;;;;106.45;51.00;;;13.50;99.90;;;;;;5029148;28;20093;-73
2023/01/05 09:31:21;;;;;;;99.85;47.83;;;13.50;99.90;;;;;;5030833;28;21227;-68
2023/01/05 09:33:48;;;;;;;110.85;48.70;;;13.50;99.90;;;;;;5031954;28;20100;-67
2023/01/05 09:36:16;;;;;;;99.03;46.95;;;13.40;99.90;;;;;;5030706;28;20089;-66
2023/01/05 09:38:47;;;;;;;96.03;41.40;;;13.30;99.90;;;;;;5030640;28;20128;-68
2023/01/05 09:41:52;;;;;;;97.13;40.13;;;13.30;99.90;;;;;;5031580;28;20089;-66
2023/01/05 09:44:28;;;;;;;96.18;41.58;;;13.30;99.90;;;;;;5030275;28;20109;-67
2023/01/05 09:46:58;;;;;;;107.32;43.15;;;13.20;99.90;;;;;;5030648;28;20093;-67
2023/01/05 09:49:27;;;;;;;89.93;43.25;;;13.20;99.90;;;;;;5031499;28;20078;-65
2023/01/05 09:52:07;;;;;;;106.80;44.95;;;13.10;99.90;;;;;;5030027;28;20062;-68
2023/01/05 09:54:35;;;;;;;102.30;42.80;;;13.20;99.90;;;;;;5028779;28;20181;-65
2023/01/05 09:57:04;;;;;;;97.13;42.38;;;13.20;99.90;;;;;;5033079;28;20152;-65
2023/01/05 09:59:37;;;;;;;94.72;44.65;;;13.20;99.90;;;;;;5032424;28;20101;-65
2023/01/05 10:02:15;;;;;;;94.72;44.38;;;13.20;99.90;;;;;;5035084;28;20081;-69
2023/01/05 10:04:42;;;;;;;100.95;43.88;;;13.30;99.90;;;;;;5035070;28;20074;-66
2023/01/05 10:07:28;;;;;;;95.28;41.95;;;13.30;99.90;;;;;;5034841;28;20066;-67
2023/01/05 10:10:00;;;;;;;100.20;42.90;;;13.30;99.90;;;;;;5033887;28;20086;-66
2023/01/05 10:15:29;;;;;;;91.50;42.72;;;13.30;99.90;;;;;;5033714;28;20116;-67
2023/01/05 10:17:55;;;;;;;97.97;40.90;;;13.30;99.90;;;;;;5034522;28;20504;-70
2023/01/05 10:21:01;;;;;;;87.38;40.17;;;13.20;99.90;;;;;;5035117;28;20062;-66
2023/01/05 10:23:37;;;;;;;88.25;41.53;;;13.10;99.90;;;;;;5032781;28;20442;-65
2023/01/05 10:26:13;;;;;;;89.78;41.72;;;12.90;99.90;;;;;;5032628;28;20570;-68
2023/01/05 10:29:21;;;;;;;97.95;40.72;;;12.90;99.90;;;;;;5033607;28;20121;-64
2023/01/05 10:32:05;;;;;;;74.97;37.85;;;12.90;99.90;;;;;;4990549;28;20095;-69
2023/01/05 10:34:48;;;;;;;94.47;40.00;;;12.80;99.90;;;;;;4989570;28;20202;-67
2023/01/05 10:37:40;;;;;;;85.68;40.90;;;12.90;99.90;;;;;;4989448;28;20121;-65
2023/01/05 10:40:18;;;;;;;101.40;42.45;;;12.90;99.90;;;;;;4989250;28;20133;-68
2023/01/05 10:42:47;;;;;;;88.05;37.30;;;12.90;99.90;;;;;;4989736;28;20083;-70
2023/01/05 10:45:16;;;;;;;86.65;38.88;;;13.00;99.90;;;;;;4989068;28;20087;-67
2023/01/05 10:47:44;;;;;;;93.68;39.75;;;13.00;99.90;;;;;;4989714;28;20106;-67
2023/01/05 10:50:39;;;;;;;98.57;39.53;;;13.10;99.90;;;;;;4990112;28;20205;-66
2023/01/05 10:53:21;;;;;;;94.18;38.92;;;13.10;99.90;;;;;;4988934;28;20083;-66
2023/01/05 10:56:11;;;;;;;108.35;39.58;;;13.10;99.90;;;;;;4988785;28;20079;-68
2023/01/05 10:58:41;;;;;;;97.40;41.40;;;13.00;99.90;;;;;;4989049;28;20103;-66
2023/01/05 11:01:23;;;;;;;88.38;38.00;;;13.10;99.90;;;;;;4989900;28;20165;-66
2023/01/05 11:03:53;;;;;;;88.18;39.78;;;13.00;99.90;;;;;;4988706;28;20088;-68
2023/01/05 11:06:27;;;;;;;90.78;39.92;;;13.10;99.90;;;;;;4993005;28;20114;-67
2023/01/05 11:08:54;;;;;;;88.72;38.60;;;13.10;99.90;;;;;;5030920;28;20092;-67
2023/01/05 11:11:26;;;;;;;86.07;40.08;;;13.10;99.90;;;;;;5033863;28;20128;-70
2023/01/05 11:13:56;;;;;;;96.43;39.15;;;13.10;99.90;;;;;;5034772;28;20090;-67
2023/01/05 11:16:29;;;;;;;88.43;39.30;;;13.10;99.90;;;;;;5034873;28;20092;-66
2023/01/05 11:18:57;;;;;;;104.47;37.20;;;13.20;99.90;;;;;;5032010;28;20090;-68
2023/01/05 11:21:27;;;;;;;89.50;40.53;;;13.10;99.90;;;;;;5032409;28;20142;-65
2023/01/05 11:23:56;;;;;;;93.95;38.80;;;13.10;99.90;;;;;;5031051;28;20197;-67
2023/01/05 11:26:36;;;;;;;101.93;44.50;;;13.10;99.90;;;;;;5031787;28;20117;-68
2023/01/05 11:29:09;;;;;;;99.65;42.88;;;13.10;99.90;;;;;;5032736;28;20541;-65
2023/01/05 11:31:48;;;;;;;96.95;44.13;;;13.10;99.90;;;;;;5033134;28;20601;-67
2023/01/05 11:34:23;;;;;;;102.45;43.45;;;13.10;99.90;;;;;;5033338;28;20066;-66
2023/01/05 11:37:06;;;;;;;98.72;42.22;;;13.10;99.90;;;;;;5032865;28;20096;-67
2023/01/05 11:39:35;;;;;;;90.53;40.85;;;13.00;99.90;;;;;;5032971;28;20449;-65
2023/01/05 11:42:12;;;;;;;90.47;38.97;;;12.90;99.90;;;;;;5033062;28;20528;-67
2023/01/05 11:44:48;;;;;;;92.35;37.97;;;12.80;99.90;;;;;;5031277;28;20073;-67
2023/01/05 11:47:20;;;;;;;109.97;42.45;;;12.90;99.90;;;;;;5031270;28;20094;-66
2023/01/05 11:49:47;;;;;;;104.95;42.30;;;12.70;99.90;;;;;;5030562;28;20086;-67
2023/01/05 11:52:40;;;;;;;92.03;41.65;;;12.70;99.90;;;;;;5032994;28;20081;-68
2023/01/05 11:55:19;;;;;;;101.78;43.65;;;12.80;99.90;;;;;;5031112;28;20497;-67
2023/01/05 11:57:49;;;;;;;81.10;39.92;;;12.90;99.90;;;;;;5031449;28;20070;-66
2023/01/05 12:00:44;;;;;;;89.82;39.88;;;12.90;99.90;;;;;;5033550;28;20081;-67
2023/01/05 12:03:37;;;;;;;98.18;40.10;;;13.00;99.90;;;;;;5033974;28;20078;-68
2023/01/05 12:06:48;;;;;;;98.95;44.00;;;13.00;99.90;;;;;;5013609;28;20573;-67
2023/01/05 12:09:38;;;;;;;94.55;42.45;;;12.90;99.90;;;;;;5032573;28;20428;-67
2023/01/05 12:12:17;;;;;;;88.22;39.58;;;12.80;99.90;;;;;;5033700;28;20124;-68
2023/01/05 12:14:49;;;;;;;103.55;42.42;;;12.80;99.90;;;;;;5030557;28;20545;-68
2023/01/05 12:17:25;;;;;;;106.75;44.08;;;12.80;99.90;;;;;;5032075;28;20435;-68
2023/01/05 12:20:03;;;;;;;93.40;44.00;;;12.80;99.90;;;;;;5033340;28;20092;-65
2023/01/05 12:22:37;;;;;;;88.13;39.88;;;12.80;99.90;;;;;;5030355;28;20097;-67
2023/01/05 12:25:37;;;;;;;92.90;43.78;;;12.80;99.90;;;;;;5031645;28;20196;-67
2023/01/05 12:28:22;;;;;;;85.75;38.05;;;12.70;99.90;;;;;;5032466;28;20132;-68
2023/01/05 12:31:12;;;;;;;85.15;39.75;;;12.80;99.90;;;;;;5031400;28;20093;-66
2023/01/05 12:33:52;;;;;;;96.40;39.53;;;12.70;99.90;;;;;;5031747;28;20136;-68
2023/01/05 12:36:26;;;;;;;89.85;37.85;;;12.70;99.90;;;;;;5030395;28;20100;-69
2023/01/05 12:39:14;;;;;;;87.28;42.78;;;12.70;99.90;;;;;;5030776;28;20070;-66
2023/01/05 12:41:46;;;;;;;82.93;38.75;;;12.70;99.90;;;;;;5030874;28;20124;-70
2023/01/05 12:44:33;;;;;;;84.60;35.67;;;12.60;99.90;;;;;;5031864;28;20416;-68
2023/01/05 12:47:39;;;;;;;82.35;35.08;;;12.60;99.90;;;;;;5031159;28;20147;-67
2023/01/05 12:50:33;;;;;;;78.50;33.75;;;12.60;99.90;;;;;;5032359;28;20090;-68
2023/01/05 12:53:31;;;;;;;83.25;34.63;;;12.60;99.90;;;;;;5031785;28;20086;-68
2023/01/05 12:56:08;;;;;;;84.22;37.08;;;12.60;99.90;;;;;;5031642;28;20092;-67
2023/01/05 12:58:40;;;;;;;;;;;12.60;99.90;;;;;;5031321;28;20077;-67
2023/01/05 13:01:22;;;;;;;85.97;41.28;;;12.50;99.90;;;;;;5030576;28;19957;-66
2023/01/05 13:03:55;;;;;;;92.97;45.72;;;12.50;99.90;;;;;;5031229;28;20089;-67
2023/01/05 13:06:23;;;;;;;100.45;43.85;;;12.40;99.90;;;;;;5031503;28;20084;-65
2023/01/05 13:09:02;;;;;;;94.75;48.75;;;12.40;99.90;;;;;;5031546;28;20096;-69
2023/01/05 13:11:50;;;;;;;93.68;48.58;;;12.40;99.90;;;;;;5029887;28;20086;-66
2023/01/05 13:14:32;;;;;;;92.07;44.65;;;12.40;99.90;;;;;;5030120;28;20070;-67
2023/01/05 13:17:10;;;;;;;85.32;43.05;;;12.30;99.90;;;;;;5032005;28;20124;-68
2023/01/05 13:20:19;;;;;;;93.07;46.83;;;12.10;99.90;;;;;;5031952;28;20100;-65
2023/01/05 13:22:48;;;;;;;93.22;45.55;;;12.20;99.90;;;;;;5026191;28;20085;-66
2023/01/05 13:25:19;;;;;;;89.55;44.10;;;12.30;99.90;;;;;;5030189;28;20156;-68
2023/01/05 13:27:45;;;;;;;94.63;46.00;;;12.40;99.90;;;;;;5031584;28;20435;-67
2023/01/05 13:30:36;;;;;;;97.60;49.45;;;12.30;99.90;;;;;;5030439;28;20090;-68
2023/01/05 13:33:21;;;;;;;106.30;47.83;;;12.30;99.90;;;;;;5034142;28;20074;-72
2023/01/05 13:36:06;;;;;;;107.80;51.40;;;12.30;99.90;;;;;;5035144;28;20077;-71